createdAt,value
2019-02-15T00:01:31.987Z,7.07
2019-02-15T00:06:38.871Z,6.90
2019-02-15T00:11:45.187Z,7.27
2019-02-15T00:16:51.434Z,7.43
2019-02-15T00:21:57.618Z,7.30
2019-02-15T00:27:03.843Z,7.13
2019-02-15T00:32:10.040Z,6.53
2019-02-15T00:37:16.321Z,6.70
2019-02-15T00:42:22.608Z,6.12
2019-02-15T00:47:40.058Z,6.47
2019-02-15T00:53:14.570Z,6.93
2019-02-15T00:58:31.565Z,6.30
2019-02-15T01:03:57.983Z,6.40
2019-02-15T01:09:28.625Z,6.50
2019-02-15T01:14:34.827Z,6.67
2019-02-15T01:19:41.029Z,6.10
2019-02-15T01:24:48.899Z,6.73
2019-02-15T01:30:03.146Z,6.13
2019-02-15T01:35:27.676Z,6.97
2019-02-15T01:40:51.237Z,5.97
2019-02-15T01:46:06.763Z,6.13
2019-02-15T01:51:12.990Z,5.83
2019-02-15T01:56:19.190Z,5.95
2019-02-15T02:01:27.485Z,6.75
2019-02-15T02:06:33.687Z,6.63
2019-02-15T02:11:39.993Z,6.63
2019-02-15T02:16:46.259Z,6.60
2019-02-15T02:21:52.526Z,6.92
2019-02-15T02:26:58.707Z,7.10
2019-02-15T02:32:05.397Z,6.60
2019-02-15T02:37:11.809Z,6.30
2019-02-15T02:42:18.088Z,6.70
2019-02-15T02:47:24.350Z,6.47
2019-02-15T02:52:30.609Z,6.15
2019-02-15T02:57:36.873Z,6.23
2019-02-15T03:02:43.203Z,6.70
2019-02-15T03:07:49.408Z,6.10
2019-02-15T03:12:55.724Z,6.43
2019-02-15T03:18:01.997Z,6.63
2019-02-15T03:23:08.251Z,6.53
2019-02-15T03:28:14.504Z,6.63
2019-02-15T03:33:20.793Z,6.87
2019-02-15T03:38:38.028Z,6.90
2019-02-15T03:43:44.198Z,6.77
2019-02-15T03:48:50.422Z,6.43
2019-02-15T03:53:56.762Z,6.03
2019-02-15T03:59:03.004Z,7.07
2019-02-15T04:04:10.168Z,6.53
2019-02-15T04:09:16.836Z,6.00
2019-02-15T04:14:32.531Z,6.40
2019-02-15T04:19:31.049Z,6.83
2019-02-15T04:24:37.513Z,6.43
2019-02-15T04:29:43.816Z,6.50
2019-02-15T04:34:50.130Z,6.77
2019-02-15T04:39:56.446Z,7.37
2019-02-15T04:45:02.689Z,7.00
2019-02-15T04:50:09.833Z,7.23
2019-02-15T04:55:16.055Z,6.47
2019-02-15T05:00:22.330Z,7.10
2019-02-15T05:05:28.509Z,6.87
2019-02-15T05:10:34.716Z,7.17
2019-02-15T05:15:41.139Z,7.67
2019-02-15T05:20:47.432Z,6.87
2019-02-15T05:25:53.745Z,6.87
2019-02-15T05:31:00.060Z,8.03
2019-02-15T05:36:06.364Z,7.27
2019-02-15T05:41:12.762Z,7.58
2019-02-15T05:46:19.139Z,7.23
2019-02-15T05:51:25.518Z,7.22
2019-02-15T05:56:31.917Z,7.80
2019-02-15T06:01:38.191Z,7.60
2019-02-15T06:06:44.450Z,7.57
2019-02-15T06:11:50.723Z,8.00
2019-02-15T06:16:56.958Z,7.13
2019-02-15T06:22:03.232Z,7.47
2019-02-15T06:27:09.563Z,7.35
2019-02-15T06:32:15.828Z,6.73
2019-02-15T06:37:22.103Z,7.90
2019-02-15T06:42:28.468Z,8.60
2019-02-15T06:47:36.345Z,8.05
2019-02-15T06:52:42.609Z,8.03
2019-02-15T06:57:48.824Z,7.80
2019-02-15T07:03:02.873Z,9.03
2019-02-15T07:08:09.090Z,7.97
2019-02-15T07:13:15.380Z,7.37
2019-02-15T07:18:21.652Z,7.17
2019-02-15T07:23:27.866Z,7.07
2019-02-15T07:28:34.091Z,7.53
2019-02-15T07:33:40.375Z,6.97
2019-02-15T07:38:46.627Z,7.07
2019-02-15T07:43:53.152Z,7.23
2019-02-15T07:48:59.479Z,7.15
2019-02-15T07:54:05.712Z,7.10
2019-02-15T07:59:11.959Z,7.13
2019-02-15T08:04:18.267Z,6.90
2019-02-15T08:09:24.543Z,7.10
2019-02-15T08:14:30.792Z,6.67
2019-02-15T08:19:36.998Z,6.60
2019-02-15T08:24:46.387Z,7.30
2019-02-15T08:29:52.702Z,7.00
2019-02-15T08:34:59.209Z,6.40
2019-02-15T08:40:06.236Z,7.50
2019-02-15T08:45:13.261Z,7.75
2019-02-15T08:50:19.667Z,7.13
2019-02-15T08:55:26.027Z,7.03
2019-02-15T09:00:32.273Z,7.12
2019-02-15T09:05:38.615Z,8.25
2019-02-15T09:10:44.830Z,7.27
2019-02-15T09:15:51.237Z,7.80
2019-02-15T09:20:57.507Z,7.80
2019-02-15T09:26:03.689Z,6.90
2019-02-15T09:31:09.900Z,7.97
2019-02-15T09:36:16.098Z,7.12
2019-02-15T09:41:22.387Z,7.67
2019-02-15T09:46:28.631Z,7.23
2019-02-15T09:51:34.854Z,7.07
2019-02-15T09:56:41.185Z,7.37
2019-02-15T10:01:47.549Z,6.72
2019-02-15T10:06:53.885Z,7.47
2019-02-15T10:12:00.173Z,7.33
2019-02-15T10:17:09.229Z,6.63
2019-02-15T10:22:15.482Z,6.83
2019-02-15T10:27:21.768Z,6.93
2019-02-15T10:32:28.009Z,7.07
2019-02-15T10:37:34.591Z,7.07
2019-02-15T10:42:40.831Z,6.83
2019-02-15T10:47:47.051Z,6.90
2019-02-15T10:52:53.295Z,6.63
2019-02-15T10:57:59.768Z,6.13
2019-02-15T11:03:06.117Z,6.60
2019-02-15T11:08:12.353Z,6.72
2019-02-15T11:13:18.631Z,6.28
2019-02-15T11:18:25.021Z,6.20
2019-02-15T11:23:31.300Z,5.53
2019-02-15T11:28:37.487Z,5.70
2019-02-15T11:33:43.777Z,6.27
2019-02-15T11:38:50.022Z,5.73
2019-02-15T11:43:56.239Z,5.40
2019-02-15T11:49:02.595Z,5.80
2019-02-15T11:54:08.855Z,5.60
2019-02-15T11:59:15.059Z,5.50
2019-02-15T12:04:21.421Z,6.00
2019-02-15T12:09:28.147Z,5.97
2019-02-15T12:14:34.536Z,5.57
2019-02-15T12:19:40.815Z,5.60
2019-02-15T12:24:47.228Z,5.70
2019-02-15T12:29:55.279Z,6.30
2019-02-15T12:35:01.508Z,6.40
2019-02-15T12:40:07.821Z,6.10
2019-02-15T12:45:14.238Z,5.90
2019-02-15T12:50:20.520Z,6.55
2019-02-15T12:55:26.753Z,6.17
2019-02-15T13:00:33.311Z,6.63
2019-02-15T13:05:39.876Z,6.67
2019-02-15T13:10:46.209Z,6.40
2019-02-15T13:15:52.552Z,7.53
2019-02-15T13:20:58.858Z,7.43
2019-02-15T13:26:08.376Z,7.70
2019-02-15T13:31:13.347Z,6.50
2019-02-15T13:36:20.155Z,6.87
2019-02-15T13:41:26.477Z,7.30
2019-02-15T13:46:33.429Z,7.12
2019-02-15T13:51:40.296Z,6.13
2019-02-15T13:56:46.512Z,6.47
2019-02-15T14:01:52.826Z,6.53
2019-02-15T14:06:59.124Z,6.53
2019-02-15T14:12:05.434Z,6.30
2019-02-15T14:17:11.632Z,5.47
2019-02-15T14:22:17.900Z,5.57
2019-02-15T14:27:24.155Z,5.40
2019-02-15T14:32:30.355Z,5.77
2019-02-15T14:37:36.608Z,5.53
2019-02-15T14:42:42.878Z,5.40
2019-02-15T14:47:54.905Z,5.23
2019-02-15T14:52:57.072Z,6.37
2019-02-15T14:58:03.539Z,6.00
2019-02-15T15:03:10.355Z,5.87
2019-02-15T15:08:16.663Z,5.70
2019-02-15T15:13:22.949Z,5.20
2019-02-15T15:18:29.283Z,5.80
2019-02-15T15:23:35.601Z,5.53
2019-02-15T15:28:41.832Z,6.03
2019-02-15T15:33:48.182Z,5.90
2019-02-15T15:38:54.432Z,6.23
2019-02-15T15:44:00.703Z,5.75
2019-02-15T15:49:06.942Z,5.87
2019-02-15T15:54:13.234Z,6.13
2019-02-15T15:59:19.604Z,6.53
2019-02-15T16:04:25.815Z,5.60
2019-02-15T16:09:32.105Z,5.83
2019-02-15T16:14:38.328Z,5.92
2019-02-15T16:19:49.250Z,5.90
2019-02-15T16:24:52.568Z,5.62
2019-02-15T16:29:58.886Z,5.93
2019-02-15T16:35:06.272Z,6.50
2019-02-15T16:40:13.064Z,6.07
2019-02-15T16:45:19.356Z,5.67
2019-02-15T16:50:25.723Z,6.10
2019-02-15T16:55:31.930Z,6.10
2019-02-15T17:00:38.256Z,7.47
2019-02-15T17:05:44.525Z,9.40
2019-02-15T17:10:50.753Z,5.35
2019-02-15T17:15:57.058Z,5.27
2019-02-15T17:21:03.280Z,5.83
2019-02-15T17:26:09.547Z,6.00
2019-02-15T17:31:15.774Z,4.90
2019-02-15T17:36:22.089Z,4.30
2019-02-15T17:41:28.313Z,4.40
2019-02-15T17:46:34.551Z,4.10
2019-02-15T17:51:40.852Z,4.60
2019-02-15T17:56:47.051Z,5.00
2019-02-15T18:01:53.355Z,4.70
2019-02-15T18:06:59.612Z,4.77
2019-02-15T18:12:05.813Z,5.23
2019-02-15T18:17:12.065Z,5.03
2019-02-15T18:22:18.449Z,5.33
2019-02-15T18:27:24.764Z,5.70
2019-02-15T18:32:31.241Z,6.80
2019-02-15T18:37:37.648Z,4.43
2019-02-15T18:42:43.942Z,4.77
2019-02-15T18:47:50.276Z,5.33
2019-02-15T18:52:56.591Z,5.17
2019-02-15T18:58:02.880Z,7.60
2019-02-15T19:03:09.104Z,4.83
2019-02-15T19:08:15.432Z,4.70
2019-02-15T19:13:21.676Z,4.58
2019-02-15T19:18:27.963Z,4.23
2019-02-15T19:23:34.253Z,4.40
2019-02-15T19:28:40.505Z,3.90
2019-02-15T19:33:46.833Z,4.70
2019-02-15T19:38:53.152Z,4.53
2019-02-15T19:43:59.487Z,4.72
2019-02-15T19:49:05.797Z,3.98
2019-02-15T19:54:12.067Z,4.23
2019-02-15T19:59:18.473Z,4.00
2019-02-15T20:04:24.865Z,4.03
2019-02-15T20:09:31.126Z,4.03
2019-02-15T20:14:37.465Z,3.60
2019-02-15T20:19:48.336Z,3.57
2019-02-15T20:24:51.739Z,4.27
2019-02-15T20:29:58.074Z,4.13
2019-02-15T20:35:04.400Z,3.90
2019-02-15T20:40:11.076Z,4.03
2019-02-15T20:45:18.750Z,4.07
2019-02-15T20:50:25.163Z,3.90
2019-02-15T20:55:31.473Z,4.47
2019-02-15T21:00:37.814Z,4.63
2019-02-15T21:05:44.190Z,4.40
2019-02-15T21:10:55.063Z,4.22
2019-02-15T21:15:58.353Z,4.20
2019-02-15T21:21:05.544Z,3.97
2019-02-15T21:26:11.775Z,4.35
2019-02-15T21:31:18.183Z,4.45
2019-02-15T21:36:24.510Z,3.83
2019-02-15T21:41:31.147Z,4.27
2019-02-15T21:46:38.397Z,4.70
2019-02-15T21:51:44.623Z,5.00
2019-02-15T21:56:50.897Z,3.80
2019-02-15T22:01:57.178Z,4.80
2019-02-15T22:07:03.384Z,4.53
2019-02-15T22:12:09.634Z,4.50
2019-02-15T22:17:16.093Z,4.72
2019-02-15T22:22:23.315Z,4.90
2019-02-15T22:27:29.528Z,4.33
2019-02-15T22:32:35.718Z,4.20
2019-02-15T22:37:41.960Z,4.60
2019-02-15T22:42:48.267Z,4.53
2019-02-15T22:47:54.595Z,4.40
2019-02-15T22:53:01.877Z,5.08
2019-02-15T22:58:08.159Z,5.03
2019-02-15T23:03:15.350Z,4.27
2019-02-15T23:08:21.593Z,4.80
2019-02-15T23:13:27.837Z,4.77
2019-02-15T23:18:34.085Z,5.30
2019-02-15T23:23:40.356Z,4.37
2019-02-15T23:28:46.559Z,4.47
2019-02-15T23:33:52.849Z,4.33
2019-02-15T23:38:59.232Z,4.93
2019-02-15T23:44:05.630Z,4.80
2019-02-15T23:49:11.964Z,4.93
2019-02-15T23:54:18.455Z,5.07
2019-02-15T23:59:25.053Z,4.80
